Weather at Jessheim Heliport

Public forecast

Using degrees Celsius for public forecast. Weather courtesy of forecast.io.

Closest aviation weather report (METAR) to Jessheim Heliport

Closest report is Oslo Airport, Gardermoen, 2.6 nm (4.8 km) NW.

2024/05/20 19:20 (retrieved 34 minutes ago)

ENGM 201920Z VRB03KT CAVOK 18/04 Q1019 NOSIG

Closest aviation forecast (TAF) to Jessheim Heliport

Closest forecast is Oslo Airport, Gardermoen, 2.6 nm (4.8 km) NW.

2024/05/20 18:36 (retrieved 1 hour ago)

TAF ENGM 201700Z 2018/2118 VRB03KT CAVOK BECMG 2107/2109 15010KT